createdAt,value
2023-03-03T00:01:52.504Z,9.38
2023-03-03T00:04:19.958Z,9.45
2023-03-03T00:06:47.149Z,9.63
2023-03-03T00:09:14.324Z,9.61
2023-03-03T00:11:41.814Z,9.69
2023-03-03T00:14:18.733Z,9.31
2023-03-03T00:16:47.419Z,9.48
2023-03-03T00:19:14.914Z,9.58
2023-03-03T00:21:43.018Z,9.63
2023-03-03T00:24:25.837Z,9.51
2023-03-03T00:26:55.661Z,9.56
2023-03-03T00:29:32.268Z,9.54
2023-03-03T00:32:13.547Z,9.54
2023-03-03T00:34:41.972Z,9.37
2023-03-03T00:37:27.901Z,9.28
2023-03-03T00:39:59.410Z,9.16
2023-03-03T00:42:27.306Z,8.92
2023-03-03T00:44:58.089Z,8.88
2023-03-03T00:47:31.641Z,8.74
2023-03-03T00:50:08.026Z,8.72
2023-03-03T00:52:36.890Z,8.75
2023-03-03T00:55:04.476Z,8.99
2023-03-03T00:57:31.608Z,8.97
2023-03-03T00:59:59.463Z,8.76
2023-03-03T01:02:27.055Z,9.04
2023-03-03T01:04:56.450Z,9.30
2023-03-03T01:07:23.872Z,9.37
2023-03-03T01:09:51.004Z,9.43
2023-03-03T01:12:18.212Z,9.39
2023-03-03T01:14:45.975Z,9.27
2023-03-03T01:17:13.107Z,9.40
2023-03-03T01:19:40.250Z,9.57
2023-03-03T01:22:07.686Z,9.31
2023-03-03T01:24:34.807Z,9.39
2023-03-03T01:27:01.963Z,9.74
2023-03-03T01:29:29.374Z,9.72
2023-03-03T01:31:56.815Z,9.69
2023-03-03T01:34:24.392Z,9.69
2023-03-03T01:36:52.341Z,8.97
2023-03-03T01:39:19.462Z,9.24
2023-03-03T01:41:46.634Z,9.48
2023-03-03T01:44:14.668Z,9.43
2023-03-03T01:46:46.697Z,9.48
2023-03-03T01:49:15.451Z,9.71
2023-03-03T01:51:49.436Z,9.96
2023-03-03T01:54:37.110Z,9.78
2023-03-03T01:57:05.213Z,9.82
2023-03-03T01:59:34.638Z,9.84
2023-03-03T02:02:01.988Z,9.93
2023-03-03T02:04:29.431Z,9.88
2023-03-03T02:06:58.253Z,9.91
2023-03-03T02:09:44.786Z,10.39
2023-03-03T02:12:12.944Z,10.26
2023-03-03T02:14:40.097Z,10.37
2023-03-03T02:17:07.265Z,10.37
2023-03-03T02:19:37.564Z,10.19
2023-03-03T02:22:04.740Z,10.17
2023-03-03T02:24:34.082Z,10.47
2023-03-03T02:27:01.601Z,10.34
2023-03-03T02:29:29.493Z,10.29
2023-03-03T02:31:57.792Z,10.55
2023-03-03T02:34:25.309Z,10.63
2023-03-03T02:36:52.458Z,10.54
2023-03-03T02:39:20.782Z,10.48
2023-03-03T02:42:01.542Z,10.48
2023-03-03T02:44:31.003Z,10.62
2023-03-03T02:46:58.762Z,10.84
2023-03-03T02:49:32.997Z,10.80
2023-03-03T02:52:00.933Z,10.59
2023-03-03T02:54:30.236Z,10.51
2023-03-03T02:56:57.933Z,10.83
2023-03-03T02:59:26.984Z,10.73
2023-03-03T03:01:55.033Z,10.53
2023-03-03T03:04:23.976Z,10.64
2023-03-03T03:06:51.850Z,10.72
2023-03-03T03:09:19.687Z,10.76
2023-03-03T03:11:47.249Z,10.80
2023-03-03T03:14:15.004Z,10.81
2023-03-03T03:16:42.557Z,10.98
2023-03-03T03:19:09.800Z,10.96
2023-03-03T03:21:37.680Z,10.81
2023-03-03T03:24:05.210Z,10.80
2023-03-03T03:26:33.045Z,11.05
2023-03-03T03:29:00.945Z,10.93
2023-03-03T03:31:28.565Z,10.95
2023-03-03T03:33:55.758Z,10.92
2023-03-03T03:36:23.852Z,11.14
2023-03-03T03:38:52.389Z,11.25
2023-03-03T03:41:19.613Z,11.05
2023-03-03T03:43:47.108Z,11.12
2023-03-03T03:46:14.539Z,11.19
2023-03-03T03:48:41.937Z,11.06
2023-03-03T03:51:11.095Z,10.86
2023-03-03T03:53:38.362Z,10.88
2023-03-03T03:56:05.741Z,10.80
2023-03-03T03:58:33.276Z,11.02
2023-03-03T04:01:04.641Z,11.13
2023-03-03T04:03:32.938Z,11.16
2023-03-03T04:06:00.441Z,11.10
2023-03-03T04:08:27.621Z,11.12
2023-03-03T04:10:55.091Z,11.15
2023-03-03T04:13:23.344Z,11.09
2023-03-03T04:15:50.628Z,10.99
2023-03-03T04:18:18.206Z,11.19
2023-03-03T04:20:46.360Z,11.28
2023-03-03T04:23:14.820Z,11.39
2023-03-03T04:25:42.741Z,11.44
2023-03-03T04:28:12.817Z,11.47
2023-03-03T04:30:40.389Z,11.47
2023-03-03T04:33:07.909Z,11.44
2023-03-03T04:35:36.834Z,11.62
2023-03-03T04:38:05.092Z,11.47
2023-03-03T04:40:33.895Z,11.61
2023-03-03T04:43:01.680Z,11.61
2023-03-03T04:45:28.950Z,11.68
2023-03-03T04:47:56.584Z,11.63
2023-03-03T04:50:23.791Z,11.53
2023-03-03T04:52:51.068Z,11.60
2023-03-03T04:55:18.792Z,11.56
2023-03-03T04:57:46.653Z,11.62
2023-03-03T05:00:13.969Z,11.64
2023-03-03T05:02:41.675Z,11.72
2023-03-03T05:05:10.653Z,11.68
2023-03-03T05:07:37.812Z,11.71
2023-03-03T05:10:05.734Z,11.67
2023-03-03T05:12:32.899Z,11.66
2023-03-03T05:15:00.053Z,11.73
2023-03-03T05:17:27.497Z,11.80
2023-03-03T05:19:57.262Z,11.80
2023-03-03T05:22:24.880Z,11.55
2023-03-03T05:24:52.417Z,11.74
2023-03-03T05:27:19.539Z,11.54
2023-03-03T05:29:46.691Z,11.70
2023-03-03T05:32:14.161Z,11.63
2023-03-03T05:34:41.435Z,11.52
2023-03-03T05:37:08.559Z,11.63
2023-03-03T05:39:36.006Z,11.55
2023-03-03T05:42:03.240Z,11.63
2023-03-03T05:44:30.399Z,11.66
2023-03-03T05:46:59.162Z,11.60
2023-03-03T05:49:26.582Z,11.64
2023-03-03T05:51:53.793Z,11.70
2023-03-03T05:54:21.281Z,11.73
2023-03-03T05:56:48.403Z,11.83
2023-03-03T05:59:15.740Z,11.80
2023-03-03T06:01:43.220Z,11.90
2023-03-03T06:04:10.670Z,12.01
2023-03-03T06:06:37.809Z,12.06
2023-03-03T06:09:05.126Z,11.94
2023-03-03T06:11:32.560Z,12.09
2023-03-03T06:13:59.997Z,12.00
2023-03-03T06:16:27.161Z,12.01
2023-03-03T06:18:54.634Z,11.96
2023-03-03T06:21:21.862Z,11.95
2023-03-03T06:23:49.100Z,11.97
2023-03-03T06:26:16.504Z,11.84
2023-03-03T06:28:43.660Z,11.88
2023-03-03T06:31:10.823Z,11.99
2023-03-03T06:33:38.461Z,12.05
2023-03-03T06:36:05.958Z,11.99
2023-03-03T06:38:33.180Z,12.01
2023-03-03T06:41:02.172Z,12.15
2023-03-03T06:43:29.343Z,12.11
2023-03-03T06:45:56.566Z,11.97
2023-03-03T06:48:24.014Z,12.18
2023-03-03T06:50:51.178Z,12.03
2023-03-03T06:53:18.571Z,11.22
2023-03-03T06:55:46.002Z,11.16
2023-03-03T06:58:14.904Z,10.83
2023-03-03T07:00:50.716Z,10.76
2023-03-03T07:03:19.215Z,11.25
2023-03-03T07:05:46.383Z,11.69
2023-03-03T07:08:14.708Z,11.21
2023-03-03T07:10:42.218Z,11.23
2023-03-03T07:13:19.768Z,10.63
2023-03-03T07:15:48.114Z,10.26
2023-03-03T07:18:41.632Z,11.06
2023-03-03T07:21:19.736Z,10.76
2023-03-03T07:23:50.505Z,10.25
2023-03-03T07:26:19.227Z,10.87
2023-03-03T07:28:54.204Z,10.89
2023-03-03T07:31:27.691Z,10.23
2023-03-03T07:33:55.169Z,11.35
2023-03-03T07:36:24.525Z,11.59
2023-03-03T07:38:55.616Z,11.78
2023-03-03T07:41:25.922Z,12.02
2023-03-03T07:43:54.615Z,12.18
2023-03-03T07:46:22.926Z,12.45
2023-03-03T07:48:50.537Z,12.50
2023-03-03T07:51:22.451Z,12.71
2023-03-03T07:53:49.631Z,12.45
2023-03-03T07:56:21.860Z,12.38
2023-03-03T07:58:48.986Z,12.26
2023-03-03T08:01:28.596Z,12.94
2023-03-03T08:03:56.529Z,13.14
2023-03-03T08:06:35.696Z,13.19
2023-03-03T08:09:19.872Z,13.36
2023-03-03T08:11:53.116Z,13.28
2023-03-03T08:14:26.424Z,13.39
2023-03-03T08:16:53.637Z,13.48
2023-03-03T08:19:21.149Z,13.55
2023-03-03T08:21:48.351Z,13.40
2023-03-03T08:24:15.483Z,13.42
2023-03-03T08:26:42.934Z,13.09
2023-03-03T08:29:11.937Z,12.19
2023-03-03T08:31:41.956Z,13.03
2023-03-03T08:34:09.654Z,13.02
2023-03-03T08:36:36.818Z,12.90
2023-03-03T08:39:04.471Z,13.21
2023-03-03T08:41:31.981Z,13.03
2023-03-03T08:43:59.120Z,13.17
2023-03-03T08:46:26.816Z,13.28
2023-03-03T08:48:54.355Z,13.27
2023-03-03T08:51:21.534Z,12.56
2023-03-03T08:53:48.684Z,12.54
2023-03-03T08:56:16.083Z,12.22
2023-03-03T08:59:01.207Z,12.44
2023-03-03T09:01:30.425Z,12.22
2023-03-03T09:03:57.683Z,12.76
2023-03-03T09:06:25.000Z,12.65
2023-03-03T09:08:52.866Z,12.97
2023-03-03T09:11:22.472Z,13.02
2023-03-03T09:13:53.342Z,13.12
2023-03-03T09:16:22.304Z,13.30
2023-03-03T09:18:49.564Z,13.64
2023-03-03T09:21:23.864Z,13.66
2023-03-03T09:23:57.872Z,13.85
2023-03-03T09:26:30.410Z,13.16
2023-03-03T09:29:06.730Z,12.77
2023-03-03T09:31:44.446Z,12.99
2023-03-03T09:34:23.636Z,13.58
2023-03-03T09:36:51.702Z,13.45
2023-03-03T09:39:25.822Z,13.62
2023-03-03T09:42:08.108Z,14.04
2023-03-03T09:44:50.623Z,14.20
2023-03-03T09:47:22.297Z,13.82
2023-03-03T09:50:08.535Z,14.27
2023-03-03T09:52:38.994Z,14.37
2023-03-03T09:55:06.452Z,14.41
2023-03-03T09:58:10.524Z,14.64
2023-03-03T10:00:41.415Z,13.90
2023-03-03T10:03:27.135Z,14.97
2023-03-03T10:05:54.379Z,15.05
2023-03-03T10:08:21.731Z,15.53
2023-03-03T10:10:51.393Z,15.53
2023-03-03T10:13:22.086Z,15.66
2023-03-03T10:16:01.946Z,15.87
2023-03-03T10:18:32.891Z,16.40
2023-03-03T10:21:20.884Z,16.54
2023-03-03T10:23:50.814Z,17.20
2023-03-03T10:26:23.570Z,17.43
2023-03-03T10:29:03.988Z,16.98
2023-03-03T10:31:34.268Z,16.04
2023-03-03T10:34:12.070Z,17.03
2023-03-03T10:36:39.434Z,16.57
2023-03-03T10:39:12.149Z,17.24
2023-03-03T10:41:42.732Z,17.43
2023-03-03T10:44:25.768Z,18.34
2023-03-03T10:47:01.489Z,18.47
2023-03-03T10:49:28.841Z,18.42
2023-03-03T10:52:08.614Z,18.76
2023-03-03T10:54:54.698Z,17.57
2023-03-03T10:57:34.640Z,17.67
2023-03-03T11:00:07.783Z,17.36
2023-03-03T11:02:53.725Z,17.98
2023-03-03T11:05:26.772Z,18.16
2023-03-03T11:08:04.383Z,18.34
2023-03-03T11:10:40.780Z,17.85
2023-03-03T11:13:27.321Z,18.70
2023-03-03T11:16:00.916Z,17.28
2023-03-03T11:18:28.398Z,17.66
2023-03-03T11:20:57.664Z,17.89
2023-03-03T11:23:24.796Z,17.93
2023-03-03T11:25:55.713Z,17.68
2023-03-03T11:28:22.848Z,17.85
2023-03-03T11:30:49.994Z,17.72
2023-03-03T11:33:26.614Z,17.48
2023-03-03T11:36:07.913Z,18.16
2023-03-03T11:38:42.117Z,17.83
2023-03-03T11:41:09.220Z,17.53
2023-03-03T11:43:44.674Z,17.44
2023-03-03T11:46:13.309Z,17.43
2023-03-03T11:48:54.601Z,17.14
2023-03-03T11:51:23.235Z,17.50
2023-03-03T11:54:01.784Z,17.46
2023-03-03T11:56:32.091Z,16.91
2023-03-03T11:58:59.449Z,16.80
2023-03-03T12:01:30.023Z,16.92
2023-03-03T12:04:04.995Z,16.83
2023-03-03T12:06:38.111Z,16.74
2023-03-03T12:09:17.484Z,16.44
2023-03-03T12:11:54.258Z,15.97
2023-03-03T12:14:26.837Z,15.82
2023-03-03T12:16:56.950Z,15.38
2023-03-03T12:19:27.472Z,16.25
2023-03-03T12:22:13.458Z,15.41
2023-03-03T12:24:46.650Z,15.40
2023-03-03T12:27:15.507Z,15.19
2023-03-03T12:29:51.222Z,14.53
2023-03-03T12:32:30.797Z,15.22
2023-03-03T12:35:30.847Z,14.86
2023-03-03T12:38:18.394Z,14.85
2023-03-03T12:40:57.623Z,15.76
2023-03-03T12:43:27.799Z,15.44
2023-03-03T12:45:55.163Z,14.72
2023-03-03T12:48:29.112Z,15.44
2023-03-03T12:51:09.501Z,15.47
2023-03-03T12:53:52.078Z,15.70
2023-03-03T12:56:37.685Z,15.90
2023-03-03T12:59:09.213Z,16.28
2023-03-03T13:01:36.618Z,16.01
2023-03-03T13:04:05.770Z,16.34
2023-03-03T13:06:34.651Z,16.35
2023-03-03T13:09:05.090Z,15.70
2023-03-03T13:11:32.225Z,16.02
2023-03-03T13:14:11.346Z,15.97
2023-03-03T13:16:41.717Z,16.31
2023-03-03T13:19:10.069Z,16.33
2023-03-03T13:21:40.290Z,15.64
2023-03-03T13:24:10.652Z,15.83
2023-03-03T13:26:40.817Z,15.57
2023-03-03T13:29:37.662Z,15.83
2023-03-03T13:32:05.047Z,15.86
2023-03-03T13:34:32.560Z,16.10
2023-03-03T13:37:02.923Z,16.24
2023-03-03T13:39:31.840Z,16.13
2023-03-03T13:42:25.548Z,16.30
2023-03-03T13:44:52.738Z,15.96
2023-03-03T13:47:21.957Z,15.99
2023-03-03T13:49:55.038Z,15.82
2023-03-03T13:52:23.115Z,16.26
2023-03-03T13:54:56.351Z,16.28
2023-03-03T13:57:29.493Z,16.54
2023-03-03T14:00:37.568Z,16.43
2023-03-03T14:03:16.587Z,16.28
2023-03-03T14:05:53.302Z,15.98
2023-03-03T14:08:40.324Z,16.41
2023-03-03T14:11:07.497Z,16.07
2023-03-03T14:13:37.928Z,16.33
2023-03-03T14:16:06.032Z,15.99
2023-03-03T14:18:38.583Z,16.02
2023-03-03T14:21:17.460Z,15.86
2023-03-03T14:23:57.271Z,16.41
2023-03-03T14:26:24.796Z,16.20
2023-03-03T14:28:53.082Z,16.06
2023-03-03T14:31:24.337Z,16.53
2023-03-03T14:33:58.490Z,16.44
2023-03-03T14:36:31.114Z,16.41
2023-03-03T14:38:58.557Z,16.62
2023-03-03T14:41:36.152Z,16.38
2023-03-03T14:44:22.631Z,16.57
2023-03-03T14:47:08.666Z,16.74
2023-03-03T14:49:37.883Z,17.00
2023-03-03T14:52:17.523Z,16.82
2023-03-03T14:54:46.773Z,16.82
2023-03-03T14:57:18.032Z,16.11
2023-03-03T15:00:07.834Z,16.39
2023-03-03T15:02:35.533Z,16.04
2023-03-03T15:05:18.417Z,15.81
2023-03-03T15:07:46.711Z,16.46
2023-03-03T15:10:15.298Z,16.39
2023-03-03T15:12:42.520Z,16.52
2023-03-03T15:15:19.615Z,16.23
2023-03-03T15:17:49.877Z,15.89
2023-03-03T15:20:17.023Z,15.92
2023-03-03T15:22:48.485Z,15.65
2023-03-03T15:25:25.645Z,16.12
2023-03-03T15:28:14.740Z,15.64
2023-03-03T15:30:46.799Z,15.92
2023-03-03T15:33:33.638Z,16.30
2023-03-03T15:36:01.134Z,16.17
2023-03-03T15:38:28.402Z,16.30
2023-03-03T15:41:31.476Z,16.17
2023-03-03T15:44:17.758Z,16.21
2023-03-03T15:47:03.646Z,16.39
2023-03-03T15:49:44.423Z,16.32
2023-03-03T15:52:32.014Z,15.68
2023-03-03T15:55:05.583Z,15.66
2023-03-03T15:57:41.180Z,15.89
2023-03-03T16:00:27.764Z,15.84
2023-03-03T16:03:15.261Z,15.79
2023-03-03T16:05:42.438Z,16.13
2023-03-03T16:08:14.060Z,15.97
2023-03-03T16:10:52.524Z,16.13
2023-03-03T16:13:41.224Z,16.27
2023-03-03T16:16:21.362Z,16.27
2023-03-03T16:18:48.928Z,16.07
2023-03-03T16:21:21.837Z,16.00
2023-03-03T16:23:49.421Z,15.72
2023-03-03T16:26:27.402Z,15.73
2023-03-03T16:29:00.899Z,15.76
2023-03-03T16:31:38.349Z,15.58
2023-03-03T16:34:06.130Z,15.42
2023-03-03T16:36:39.196Z,15.16
2023-03-03T16:39:26.047Z,15.26
2023-03-03T16:42:03.450Z,15.23
2023-03-03T16:44:53.532Z,15.11
2023-03-03T16:47:29.988Z,15.07
2023-03-03T16:50:14.102Z,14.99
2023-03-03T16:53:01.948Z,14.97
2023-03-03T16:55:35.241Z,14.97
2023-03-03T16:58:05.585Z,15.01
2023-03-03T17:00:38.244Z,14.93
2023-03-03T17:03:19.044Z,14.93
2023-03-03T17:05:46.745Z,14.87
2023-03-03T17:08:32.793Z,14.96
2023-03-03T17:11:03.293Z,14.82
2023-03-03T17:13:36.729Z,14.88
2023-03-03T17:16:08.545Z,14.91
2023-03-03T17:18:44.839Z,14.87
2023-03-03T17:21:33.194Z,14.79
2023-03-03T17:24:20.900Z,14.74
2023-03-03T17:26:58.414Z,14.72
2023-03-03T17:29:35.321Z,14.54
2023-03-03T17:32:21.971Z,14.48
2023-03-03T17:35:05.710Z,14.48
2023-03-03T17:37:36.711Z,14.42
2023-03-03T17:40:23.308Z,14.36
2023-03-03T17:42:51.180Z,14.16
2023-03-03T17:45:19.048Z,14.15
2023-03-03T17:47:46.585Z,14.26
2023-03-03T17:50:32.901Z,13.87
2023-03-03T17:53:03.321Z,13.94
2023-03-03T17:55:46.057Z,13.88
2023-03-03T17:58:33.088Z,13.81
2023-03-03T18:01:07.831Z,13.55
2023-03-03T18:03:56.334Z,13.74
2023-03-03T18:06:26.624Z,13.73
2023-03-03T18:09:14.544Z,13.65
2023-03-03T18:12:01.516Z,13.55
2023-03-03T18:14:42.149Z,13.60
2023-03-03T18:17:20.252Z,13.52
2023-03-03T18:19:56.672Z,13.46
2023-03-03T18:22:30.960Z,13.37
2023-03-03T18:25:00.938Z,13.31
2023-03-03T18:27:32.812Z,13.20
2023-03-03T18:30:20.628Z,13.20
2023-03-03T18:33:01.302Z,13.21
2023-03-03T18:35:38.713Z,13.15
2023-03-03T18:38:15.426Z,13.02
2023-03-03T18:40:52.644Z,13.06
2023-03-03T18:43:38.973Z,12.93
2023-03-03T18:46:33.275Z,13.00
2023-03-03T18:49:02.528Z,12.88
2023-03-03T18:51:39.828Z,12.95
2023-03-03T18:54:14.250Z,12.84
2023-03-03T18:56:46.726Z,12.81
2023-03-03T18:59:40.391Z,12.69
2023-03-03T19:02:17.777Z,12.53
2023-03-03T19:04:55.628Z,12.43
2023-03-03T19:07:29.594Z,12.49
2023-03-03T19:10:02.750Z,12.49
2023-03-03T19:12:46.654Z,12.46
2023-03-03T19:15:38.483Z,12.48
2023-03-03T19:18:14.038Z,12.47
2023-03-03T19:20:46.268Z,12.49
2023-03-03T19:23:15.582Z,12.52
2023-03-03T19:25:43.274Z,12.52
2023-03-03T19:28:10.893Z,12.45
2023-03-03T19:30:42.182Z,12.25
2023-03-03T19:33:28.463Z,11.95
2023-03-03T19:35:56.552Z,11.97
2023-03-03T19:38:26.981Z,11.97
2023-03-03T19:41:00.785Z,12.08
2023-03-03T19:43:47.579Z,12.06
2023-03-03T19:46:18.319Z,12.05
2023-03-03T19:48:49.090Z,12.01
2023-03-03T19:51:26.975Z,11.96
2023-03-03T19:54:02.839Z,11.89
2023-03-03T19:56:41.779Z,11.82
2023-03-03T19:59:13.870Z,11.81
2023-03-03T20:01:56.601Z,11.81
2023-03-03T20:04:39.896Z,11.82
2023-03-03T20:07:29.057Z,11.73
2023-03-03T20:09:57.013Z,11.50
2023-03-03T20:12:27.176Z,11.40
2023-03-03T20:15:27.447Z,11.52
2023-03-03T20:18:01.800Z,11.46
2023-03-03T20:20:36.776Z,11.53
2023-03-03T20:23:20.325Z,11.53
2023-03-03T20:26:00.138Z,11.50
2023-03-03T20:28:31.275Z,11.49
2023-03-03T20:31:02.586Z,11.41
2023-03-03T20:33:45.738Z,10.84
2023-03-03T20:36:28.811Z,10.95
2023-03-03T20:38:56.803Z,10.72
2023-03-03T20:41:24.415Z,10.56
2023-03-03T20:44:04.440Z,10.57
2023-03-03T20:46:45.669Z,10.68
2023-03-03T20:49:18.133Z,10.78
2023-03-03T20:51:58.333Z,10.52
2023-03-03T20:54:42.781Z,10.64
2023-03-03T20:57:13.717Z,10.80
2023-03-03T20:59:44.547Z,10.71
2023-03-03T21:02:31.733Z,10.78
2023-03-03T21:05:10.289Z,10.70
2023-03-03T21:07:41.108Z,10.73
2023-03-03T21:10:16.579Z,10.69
2023-03-03T21:12:44.545Z,10.81
2023-03-03T21:15:22.379Z,10.93
2023-03-03T21:17:50.451Z,11.15
2023-03-03T21:20:38.183Z,11.04
2023-03-03T21:23:06.219Z,11.09
2023-03-03T21:25:52.559Z,11.21
2023-03-03T21:28:25.336Z,11.37
2023-03-03T21:31:25.311Z,11.37
2023-03-03T21:33:52.873Z,11.08
2023-03-03T21:36:20.084Z,10.88
2023-03-03T21:38:47.509Z,10.66
2023-03-03T21:41:15.494Z,10.47
2023-03-03T21:43:43.668Z,10.57
2023-03-03T21:46:12.501Z,10.56
2023-03-03T21:48:40.501Z,10.57
2023-03-03T21:51:07.708Z,10.65
2023-03-03T21:53:35.320Z,10.42
2023-03-03T21:56:02.759Z,10.34
2023-03-03T21:58:29.889Z,10.23
2023-03-03T22:00:57.173Z,10.30
2023-03-03T22:03:24.700Z,10.11
2023-03-03T22:05:53.556Z,10.03
2023-03-03T22:08:23.432Z,10.32
2023-03-03T22:10:53.856Z,10.26
2023-03-03T22:13:21.130Z,10.33
2023-03-03T22:15:48.404Z,10.46
2023-03-03T22:18:18.275Z,10.37
2023-03-03T22:20:46.137Z,10.44
2023-03-03T22:23:14.120Z,10.33
2023-03-03T22:25:41.759Z,10.25
2023-03-03T22:28:08.927Z,10.18
2023-03-03T22:30:36.775Z,10.34
2023-03-03T22:33:04.232Z,10.54
2023-03-03T22:35:31.451Z,10.45
2023-03-03T22:37:58.623Z,10.51
2023-03-03T22:40:26.267Z,10.39
2023-03-03T22:42:53.475Z,10.47
2023-03-03T22:45:20.614Z,10.39
2023-03-03T22:47:48.055Z,10.30
2023-03-03T22:50:15.343Z,10.20
2023-03-03T22:52:42.479Z,10.19
2023-03-03T22:55:10.095Z,10.10
2023-03-03T22:57:37.233Z,10.02
2023-03-03T23:00:07.000Z,9.98
2023-03-03T23:02:34.626Z,9.74
2023-03-03T23:05:07.726Z,9.67
2023-03-03T23:07:35.651Z,9.82
2023-03-03T23:10:02.848Z,9.76
2023-03-03T23:12:30.173Z,9.53
2023-03-03T23:14:57.617Z,9.41
2023-03-03T23:17:24.986Z,9.40
2023-03-03T23:19:52.267Z,9.43
2023-03-03T23:22:19.737Z,9.50
2023-03-03T23:24:46.890Z,9.55
2023-03-03T23:27:14.046Z,9.49
2023-03-03T23:29:41.493Z,9.50
2023-03-03T23:32:08.826Z,9.37
2023-03-03T23:34:36.023Z,9.35
2023-03-03T23:37:03.473Z,9.22
2023-03-03T23:39:30.655Z,9.20
2023-03-03T23:41:57.771Z,8.94
2023-03-03T23:44:25.203Z,8.95
2023-03-03T23:46:52.451Z,8.81
2023-03-03T23:49:19.635Z,8.88
2023-03-03T23:51:47.091Z,9.00
2023-03-03T23:54:14.248Z,9.10
2023-03-03T23:56:41.373Z,9.04
2023-03-03T23:59:08.768Z,9.06
